createdAt,value
2023-07-18T00:05:37.902Z,29.51
2023-07-18T00:11:42.227Z,29.41
2023-07-18T00:17:45.415Z,29.45
2023-07-18T00:23:49.027Z,29.36
2023-07-18T00:29:52.037Z,29.36
2023-07-18T00:35:54.248Z,29.28
2023-07-18T00:41:56.515Z,29.24
2023-07-18T00:47:59.224Z,29.21
2023-07-18T00:54:03.982Z,29.20
2023-07-18T01:00:12.610Z,29.12
2023-07-18T01:06:15.351Z,29.10
2023-07-18T01:12:17.659Z,28.76
2023-07-18T01:18:21.238Z,28.49
2023-07-18T01:24:23.907Z,28.29
2023-07-18T01:30:28.598Z,28.11
2023-07-18T01:36:31.156Z,28.08
2023-07-18T01:42:34.123Z,28.02
2023-07-18T01:48:38.096Z,28.00
2023-07-18T01:54:43.024Z,27.80
2023-07-18T02:00:45.252Z,27.72
2023-07-18T02:06:47.503Z,27.76
2023-07-18T02:12:50.872Z,27.76
2023-07-18T02:18:55.074Z,27.73
2023-07-18T02:24:58.704Z,27.62
2023-07-18T02:31:01.358Z,27.43
2023-07-18T02:37:04.780Z,27.39
2023-07-18T02:43:07.698Z,27.29
2023-07-18T02:49:10.473Z,27.27
2023-07-18T02:55:13.849Z,27.29
2023-07-18T03:01:20.525Z,27.40
2023-07-18T03:07:23.224Z,27.39
2023-07-18T03:13:29.431Z,27.41
2023-07-18T03:19:33.148Z,27.48
2023-07-18T03:25:38.448Z,27.65
2023-07-18T03:31:41.256Z,27.91
2023-07-18T03:37:44.149Z,28.10
2023-07-18T03:43:46.345Z,28.23
2023-07-18T03:49:48.769Z,28.36
2023-07-18T03:55:51.746Z,28.54
2023-07-18T04:02:10.727Z,28.67
2023-07-18T04:08:13.155Z,28.75
2023-07-18T07:19:11.567Z,34.37
2023-07-18T07:25:16.863Z,34.74
2023-07-18T07:31:19.529Z,35.17
2023-07-18T07:37:22.385Z,35.22
2023-07-18T07:43:25.903Z,35.35
2023-07-18T07:49:29.228Z,35.53
2023-07-18T07:55:31.652Z,35.75
2023-07-18T08:01:34.388Z,35.72
2023-07-18T08:07:41.524Z,35.65
2023-07-18T08:13:44.328Z,35.64
2023-07-18T08:19:46.721Z,35.40
2023-07-18T08:25:49.072Z,35.56
2023-07-18T08:31:56.528Z,35.59
2023-07-18T08:37:58.861Z,35.80
2023-07-18T08:44:04.027Z,36.09
2023-07-18T08:50:11.138Z,36.44
2023-07-18T08:56:14.885Z,36.46
2023-07-18T09:02:17.265Z,36.57
2023-07-18T09:08:20.117Z,36.66
2023-07-18T09:14:29.021Z,37.08
2023-07-18T09:20:33.868Z,37.22
2023-07-18T09:26:36.273Z,37.34
2023-07-18T09:32:40.763Z,37.25
2023-07-18T09:38:45.307Z,37.37
2023-07-18T09:44:53.428Z,37.47
2023-07-18T09:51:01.396Z,37.20
2023-07-18T09:57:07.104Z,37.10
2023-07-18T10:03:11.722Z,37.72
2023-07-18T10:09:14.746Z,37.50
2023-07-18T10:15:18.308Z,37.28
2023-07-18T10:21:34.616Z,37.25
2023-07-18T10:27:44.980Z,37.44
2023-07-18T10:34:16.520Z,37.63
2023-07-18T10:40:53.961Z,37.77
2023-07-18T10:46:56.395Z,37.66
2023-07-18T10:52:59.042Z,37.91
2023-07-18T10:59:01.349Z,38.10
2023-07-18T11:05:08.348Z,38.11
2023-07-18T11:11:12.509Z,37.73
2023-07-18T11:17:18.924Z,38.74
2023-07-18T11:23:23.155Z,38.35
2023-07-18T11:29:28.737Z,38.47
2023-07-18T11:35:52.504Z,38.74
2023-07-18T11:42:07.781Z,39.18
2023-07-18T11:48:10.170Z,38.61
2023-07-18T11:54:13.671Z,38.16
2023-07-18T12:00:17.661Z,38.24
2023-07-18T12:06:20.778Z,38.06
2023-07-18T12:12:25.125Z,37.75
2023-07-18T12:18:28.591Z,37.98
2023-07-18T12:24:33.082Z,38.04
2023-07-18T12:30:35.964Z,38.28
2023-07-18T12:36:38.858Z,38.01
2023-07-18T12:42:41.150Z,38.39
2023-07-18T12:54:48.478Z,38.40
2023-07-18T13:00:50.761Z,38.38
2023-07-18T13:06:53.249Z,38.05
2023-07-18T13:12:55.619Z,38.38
2023-07-18T13:18:58.028Z,38.27
2023-07-18T13:25:00.218Z,38.36
2023-07-18T13:31:02.536Z,38.49
2023-07-18T13:37:05.336Z,38.45
2023-07-18T13:43:07.588Z,38.21
2023-07-18T13:49:09.837Z,38.08
2023-07-18T13:55:11.974Z,38.24
2023-07-18T14:01:14.256Z,38.39
2023-07-18T14:14:37.477Z,38.37
2023-07-18T14:20:39.846Z,38.44
2023-07-18T14:26:42.927Z,38.55
2023-07-18T14:32:45.195Z,38.48
2023-07-18T14:38:47.693Z,38.52
2023-07-18T14:44:49.818Z,38.36
2023-07-18T14:50:53.110Z,38.34
2023-07-18T14:56:56.263Z,38.35
2023-07-18T15:03:00.453Z,38.11
2023-07-18T15:09:03.864Z,38.08
2023-07-18T15:15:07.941Z,38.11
2023-07-18T15:21:14.204Z,37.81
2023-07-18T15:27:17.165Z,37.99
2023-07-18T15:33:25.708Z,37.81
2023-07-18T15:39:29.681Z,37.61
2023-07-18T15:45:31.815Z,37.47
2023-07-18T15:51:34.061Z,37.15
2023-07-18T15:57:36.329Z,37.18
2023-07-18T16:03:38.752Z,36.95
2023-07-18T16:09:52.178Z,37.04
2023-07-18T16:15:55.575Z,36.51
2023-07-18T16:21:58.115Z,36.23
2023-07-18T16:28:00.361Z,36.17
2023-07-18T16:34:03.102Z,36.11
2023-07-18T16:40:06.757Z,35.98
2023-07-18T16:46:08.883Z,35.62
2023-07-18T16:52:12.089Z,35.38
2023-07-18T16:58:15.830Z,35.09
2023-07-18T17:04:19.638Z,34.81
2023-07-18T17:10:21.951Z,34.50
2023-07-18T17:16:24.385Z,34.14
2023-07-18T17:22:27.113Z,34.04
2023-07-18T17:28:30.617Z,33.84
2023-07-18T17:34:36.663Z,33.65
2023-07-18T17:40:38.827Z,33.39
2023-07-18T17:46:41.046Z,33.27
2023-07-18T17:52:44.747Z,33.03
2023-07-18T17:58:48.662Z,32.86
2023-07-18T18:04:52.536Z,32.69
2023-07-18T18:10:54.901Z,32.57
2023-07-18T18:16:59.535Z,32.37
2023-07-18T18:23:01.914Z,32.20
2023-07-18T18:29:06.515Z,32.04
2023-07-18T18:35:10.194Z,31.88
2023-07-18T18:41:12.461Z,31.79
2023-07-18T18:47:15.194Z,31.71
2023-07-18T18:53:18.209Z,31.61
2023-07-18T18:59:21.488Z,31.50
2023-07-18T19:05:24.362Z,31.44
2023-07-18T19:11:26.795Z,31.35
2023-07-18T19:17:29.395Z,31.15
2023-07-18T19:23:31.756Z,31.01
2023-07-18T19:29:35.699Z,30.87
2023-07-18T19:35:38.032Z,30.80
2023-07-18T19:41:40.362Z,30.69
2023-07-18T19:47:42.648Z,30.56
2023-07-18T19:53:44.830Z,30.39
2023-07-18T19:59:48.804Z,30.31
2023-07-18T20:05:52.559Z,30.25
2023-07-18T20:12:03.879Z,30.20
2023-07-18T20:18:06.110Z,30.21
2023-07-18T20:24:08.799Z,30.20
2023-07-18T20:30:11.532Z,30.19
2023-07-18T20:36:15.446Z,30.19
2023-07-18T20:42:17.934Z,30.12
2023-07-18T20:48:20.195Z,30.05
2023-07-18T20:54:22.601Z,29.98
2023-07-18T21:00:25.893Z,29.97
2023-07-18T21:06:28.222Z,29.97
2023-07-18T21:12:30.482Z,29.97
2023-07-18T21:18:32.926Z,29.91
2023-07-18T21:24:35.185Z,29.92
2023-07-18T21:30:37.394Z,29.91
2023-07-18T21:36:40.906Z,29.94
2023-07-18T21:42:43.914Z,29.98
2023-07-18T21:48:46.280Z,29.90
2023-07-18T21:54:48.576Z,29.80
2023-07-18T22:00:50.826Z,29.72
2023-07-18T22:06:53.131Z,29.72
2023-07-18T22:12:59.452Z,29.62
2023-07-18T22:19:01.762Z,29.58
2023-07-18T22:25:05.867Z,29.55
2023-07-18T22:31:08.289Z,29.30
2023-07-18T22:37:11.693Z,29.03
2023-07-18T22:43:15.006Z,29.03
2023-07-18T22:49:18.350Z,29.00
2023-07-18T22:55:20.775Z,28.93
2023-07-18T23:01:24.357Z,28.92
2023-07-18T23:07:28.606Z,28.77
2023-07-18T23:13:31.178Z,28.76
2023-07-18T23:19:35.279Z,28.74
2023-07-18T23:25:37.584Z,28.67
2023-07-18T23:31:40.356Z,28.58
2023-07-18T23:37:43.354Z,28.50
2023-07-18T23:43:49.119Z,28.43
2023-07-18T23:49:51.569Z,28.39
2023-07-18T23:55:55.049Z,28.33
